Oxford, KS

1:52 PM CDT on September 22, 2014 (GMT -0500)
Randy's Backyard | Change Station
CLOSE
Current Station
Personal Weather Station
Location: Winfield, KS
Elevation: 1138 ft
Nearby Weather Stations

Elev 1138 ft 37.24 °N, 97.00 °W | Updated 5 seconds ago

Clear
Clear
80.8 °F
Feels Like 80 °F
N
0.0
Wind Variable Wind from South
Gusts 0.0 mph

Today
High -- | Low -- °F
--% Chance of Precip.
Yesterday
High -- | Low -- °F
Precip. -- in
7:16 AM 7:25 PM
Waning Crescent, 2% visible
Pressure 30.29 in
Visibility 10.0 miles
Clouds Clear
Heat Index 80 °F
Dew Point 47 °F
Humidity 30%
Rainfall 0.00 in
Snow Depth Not available.
UV 8 out of 12
Pollen 5.00 out of 12
Air Quality Not available.
Flu Activity Not available.
METAR KWLD 221754Z AUTO VRB06KT 10SM CLR 22/08 A3031 RMK AO2 SLP257 T02220083 10228 20083 58009

More Conditions Fewer Conditions

Pressure 30.29 in
Visibility 10.0 miles
Clouds Clear
Heat Index 80 °F
Dew Point 47 °F
Humidity 30%
Rainfall 0.00 in
Snow Depth Not available.
UV 8 out of 12
Pollen 5.00 out of 12
Air Quality Not available.
Flu Activity Not available.
METAR KWLD 221754Z AUTO VRB06KT 10SM CLR 22/08 A3031 RMK AO2 SLP257 T02220083 10228 20083 58009

More Conditions Fewer Conditions

10-Day Weather Forecast

Almanac

Astronomy

Sep. 22, 2014 Rise Set
Actual Time 7:16 AM CDT 7:25 PM CDT
Civil Twilight 6:50 AM CDT 7:51 PM CDT
Nautical Twilight 6:20 AM CDT 8:21 PM CDT
Astronomical Twilight 5:49 AM CDT 8:52 PM CDT
Moon 5:47 AM CDT 6:33 PM CDT
Length of Visible Light 13h 01m
Length of Day
12h 09m
Tomorrow will be 2m 22s shorter.
Waning Crescent, 2% of the Moon is Illuminated
Today
Waning Crescent
Sep 24
New
Oct 1
First Quarter
Oct 8
Full
Oct 15
Last Quarter

Today's Extremes

State Highs State Lows

Community

WunderPhotos

Upload Photos

1,755,512 photos uploaded!

WunderBlogs® & News

Nearby

Snow Depth

Station Depth Elevation
No new snow has been reported.

Earthquake Activity

City Distance Mag. Time & Date
Medford, Oklahoma 44 miles 3.2 2:10 AM CDT
2014-09-20
Luther, Oklahoma 111 miles 2.7 4:47 PM CDT
2014-09-19
Guthrie, Oklahoma 101 miles 3.6 12:23 PM CDT
2014-09-19
Jones, Oklahoma 117 miles 2.8 1:13 AM CDT
2014-09-19
Minimum magnitude displayed is 2.5.

Coastal Water Temperatures

Place Temperature
No Stations Reporting

Nearby Weather Stations